Time,TemperatureF,DewpointF,PressureIn,WindDirection,WindDirectionDegrees,WindSpeedMPH,WindSpeedGustMPH,Humidity,HourlyPrecipIn,Conditions,Clouds,dailyrainin,SoftwareType,DateUTC
2013-04-18 00:01:00,71.7,65.6,30.03,ESE,103,5.0,9.0,81,0.00,,,0.00,VWS V14.01,2013-04-18 04:01:00,
2013-04-18 00:06:00,71.6,65.5,30.02,East,92,4.0,9.0,81,0.00,,,0.00,VWS V14.01,2013-04-18 04:06:00,
2013-04-18 00:11:00,71.5,65.4,30.03,East,89,6.0,9.0,81,0.00,,,0.00,VWS V14.01,2013-04-18 04:11:00,
2013-04-18 00:16:00,71.5,65.4,30.03,East,89,3.0,5.0,81,0.00,,,0.00,VWS V14.01,2013-04-18 04:16:00,
2013-04-18 00:21:00,71.4,65.6,30.02,East,94,6.0,8.0,82,0.00,,,0.00,VWS V14.01,2013-04-18 04:21:00,
2013-04-18 00:26:00,71.3,65.5,30.02,ESE,110,2.0,11.0,82,0.00,,,0.00,VWS V14.01,2013-04-18 04:26:00,
2013-04-18 00:31:00,71.1,65.3,30.01,East,94,4.0,11.0,82,0.00,,,0.00,VWS V14.01,2013-04-18 04:31:00,
2013-04-18 00:36:00,71.0,65.2,30.01,East,96,4.0,8.0,82,0.00,,,0.00,VWS V14.01,2013-04-18 04:36:00,
2013-04-18 00:41:00,70.9,65.5,30.01,East,96,0.0,8.0,83,0.00,,,0.00,VWS V14.01,2013-04-18 04:41:00,
2013-04-18 00:46:00,70.8,65.4,30.02,East,96,6.0,6.0,83,0.00,,,0.00,VWS V14.01,2013-04-18 04:46:00,
2013-04-18 00:51:00,70.8,65.4,30.02,East,96,4.0,7.0,83,0.00,,,0.00,VWS V14.01,2013-04-18 04:51:00,
2013-04-18 00:57:00,70.7,65.6,30.02,East,96,2.0,4.0,84,0.00,,,0.00,VWS V14.01,2013-04-18 04:57:00,
2013-04-18 01:02:00,70.6,65.5,30.02,East,96,2.0,6.0,84,0.00,,,0.00,VWS V14.01,2013-04-18 05:02:00,
2013-04-18 01:06:00,70.5,65.4,30.02,East,96,0.0,4.0,84,0.00,,,0.00,VWS V14.01,2013-04-18 05:06:00,
2013-04-18 01:11:00,70.4,65.3,30.02,East,96,2.0,6.0,84,0.00,,,0.00,VWS V14.01,2013-04-18 05:11:00,
2013-04-18 01:16:00,70.4,65.3,30.02,East,96,2.0,6.0,84,0.00,,,0.00,VWS V14.01,2013-04-18 05:16:00,
2013-04-18 01:21:00,70.3,65.6,30.01,East,96,4.0,8.0,85,0.00,,,0.00,VWS V14.01,2013-04-18 05:21:00,
2013-04-18 01:27:00,70.4,65.7,30.01,East,96,2.0,6.0,85,0.00,,,0.00,VWS V14.01,2013-04-18 05:27:00,
2013-04-18 01:32:00,70.3,65.6,30.01,East,96,5.0,9.0,85,0.00,,,0.00,VWS V14.01,2013-04-18 05:32:00,
2013-04-18 01:37:00,70.3,65.6,30.01,East,96,2.0,6.0,85,0.00,,,0.00,VWS V14.01,2013-04-18 05:37:00,
2013-04-18 01:41:00,70.2,65.8,30.01,East,96,2.0,7.0,86,0.00,,,0.00,VWS V14.01,2013-04-18 05:41:00,
2013-04-18 01:47:00,70.1,65.7,30.00,East,96,4.0,8.0,86,0.00,,,0.00,VWS V14.01,2013-04-18 05:47:00,
2013-04-18 01:52:00,70.1,65.7,30.00,East,96,4.0,8.0,86,0.00,,,0.00,VWS V14.01,2013-04-18 05:52:00,
2013-04-18 01:57:00,70.1,66.1,30.00,East,96,6.0,7.0,87,0.00,,,0.00,VWS V14.01,2013-04-18 05:57:00,
2013-04-18 02:02:00,70.2,66.2,30.00,East,95,4.0,7.0,87,0.00,,,0.00,VWS V14.01,2013-04-18 06:02:00,
2013-04-18 02:06:00,70.2,66.2,30.00,East,94,5.0,7.0,87,0.00,,,0.00,VWS V14.01,2013-04-18 06:06:00,
2013-04-18 02:11:00,70.1,66.1,29.99,East,98,7.0,8.0,87,0.00,,,0.00,VWS V14.01,2013-04-18 06:11:00,
2013-04-18 02:16:00,70.1,66.1,29.99,East,97,6.0,6.0,87,0.00,,,0.00,VWS V14.01,2013-04-18 06:16:00,
2013-04-18 02:21:00,70.0,66.0,30.00,East,97,0.0,6.0,87,0.00,,,0.00,VWS V14.01,2013-04-18 06:21:00,
2013-04-18 02:26:00,69.9,65.9,29.99,East,97,6.0,6.0,87,0.00,,,0.00,VWS V14.01,2013-04-18 06:26:00,
2013-04-18 02:31:00,69.8,66.1,29.99,East,97,4.0,7.0,88,0.00,,,0.00,VWS V14.01,2013-04-18 06:31:00,
2013-04-18 02:36:00,69.7,66.0,29.99,East,97,2.0,6.0,88,0.00,,,0.00,VWS V14.01,2013-04-18 06:36:00,
2013-04-18 02:41:00,69.6,65.9,29.98,East,97,2.0,6.0,88,0.00,,,0.00,VWS V14.01,2013-04-18 06:41:00,
2013-04-18 02:46:00,69.4,65.7,29.98,East,97,4.0,6.0,88,0.00,,,0.00,VWS V14.01,2013-04-18 06:46:00,
2013-04-18 02:51:00,69.2,65.8,29.98,East,97,0.0,6.0,89,0.00,,,0.00,VWS V14.01,2013-04-18 06:51:00,
2013-04-18 02:57:00,69.1,65.7,29.98,East,97,0.0,4.0,89,0.00,,,0.00,VWS V14.01,2013-04-18 06:57:00,
2013-04-18 03:02:00,68.9,65.5,29.98,East,97,1.0,5.0,89,0.00,,,0.00,VWS V14.01,2013-04-18 07:02:00,
2013-04-18 03:07:00,68.8,65.4,29.98,East,97,1.0,2.0,89,0.00,,,0.00,VWS V14.01,2013-04-18 07:07:00,
2013-04-18 03:11:00,68.6,65.6,29.98,East,97,0.0,2.0,90,0.00,,,0.00,VWS V14.01,2013-04-18 07:11:00,
2013-04-18 03:16:00,68.5,65.5,29.98,East,97,2.0,4.0,90,0.00,,,0.00,VWS V14.01,2013-04-18 07:16:00,
2013-04-18 03:21:00,68.4,65.4,29.98,East,97,2.0,4.0,90,0.00,,,0.00,VWS V14.01,2013-04-18 07:21:00,
2013-04-18 03:26:00,68.3,65.6,29.97,East,97,1.0,4.0,91,0.00,,,0.00,VWS V14.01,2013-04-18 07:26:00,
2013-04-18 03:31:00,68.1,65.4,29.98,East,97,0.0,4.0,91,0.00,,,0.00,VWS V14.01,2013-04-18 07:31:00,
2013-04-18 03:36:00,68.1,65.4,29.98,East,97,0.0,0.0,91,0.00,,,0.00,VWS V14.01,2013-04-18 07:36:00,
2013-04-18 03:41:00,68.0,65.3,29.98,East,97,0.0,0.0,91,0.00,,,0.00,VWS V14.01,2013-04-18 07:41:00,
2013-04-18 03:46:00,67.7,65.0,29.98,East,97,0.0,0.0,91,0.00,,,0.00,VWS V14.01,2013-04-18 07:46:00,
2013-04-18 03:51:00,67.4,64.7,29.98,East,97,0.0,0.0,91,0.00,,,0.00,VWS V14.01,2013-04-18 07:51:00,
2013-04-18 03:56:00,67.0,64.3,29.98,East,97,0.0,0.0,91,0.00,,,0.00,VWS V14.01,2013-04-18 07:56:00,
2013-04-18 04:01:00,66.7,64.0,29.98,East,97,0.0,0.0,91,0.00,,,0.00,VWS V14.01,2013-04-18 08:01:00,
2013-04-18 04:06:00,66.6,64.2,29.98,East,97,0.0,1.0,92,0.00,,,0.00,VWS V14.01,2013-04-18 08:06:00,
2013-04-18 04:12:00,66.8,64.7,29.98,East,97,0.0,2.0,93,0.00,,,0.00,VWS V14.01,2013-04-18 08:12:00,
2013-04-18 04:17:00,66.9,65.1,29.97,East,97,0.0,1.0,94,0.00,,,0.00,VWS V14.01,2013-04-18 08:17:00,
2013-04-18 04:22:00,66.8,64.7,29.97,East,97,0.0,1.0,93,0.00,,,0.00,VWS V14.01,2013-04-18 08:22:00,
2013-04-18 04:27:00,66.7,64.6,29.97,East,97,0.0,0.0,93,0.00,,,0.00,VWS V14.01,2013-04-18 08:27:00,
2013-04-18 04:32:00,66.7,64.9,29.98,East,97,0.0,0.0,94,0.00,,,0.00,VWS V14.01,2013-04-18 08:32:00,
2013-04-18 04:37:00,66.7,64.9,29.98,East,97,0.0,2.0,94,0.00,,,0.00,VWS V14.01,2013-04-18 08:37:00,
2013-04-18 04:42:00,66.4,64.3,29.98,East,97,0.0,2.0,93,0.00,,,0.00,VWS V14.01,2013-04-18 08:42:00,
2013-04-18 04:47:00,66.2,64.1,29.98,East,97,0.0,0.0,93,0.00,,,0.00,VWS V14.01,2013-04-18 08:47:00,
2013-04-18 04:52:00,66.0,64.2,29.97,East,97,0.0,0.0,94,0.00,,,0.00,VWS V14.01,2013-04-18 08:52:00,
2013-04-18 04:56:00,65.8,63.7,29.98,East,97,0.0,0.0,93,0.00,,,0.00,VWS V14.01,2013-04-18 08:56:00,
2013-04-18 05:02:00,65.4,63.3,29.98,East,97,0.0,0.0,93,0.00,,,0.00,VWS V14.01,2013-04-18 09:02:00,
2013-04-18 05:07:00,65.2,63.1,29.97,East,97,0.0,0.0,93,0.00,,,0.00,VWS V14.01,2013-04-18 09:07:00,
2013-04-18 05:11:00,65.0,62.9,29.97,East,97,0.0,0.0,93,0.00,,,0.00,VWS V14.01,2013-04-18 09:11:00,
2013-04-18 05:16:00,64.9,63.1,29.97,East,97,0.0,0.0,94,0.00,,,0.00,VWS V14.01,2013-04-18 09:16:00,
2013-04-18 05:21:00,64.9,63.1,29.98,East,97,0.0,0.0,94,0.00,,,0.00,VWS V14.01,2013-04-18 09:21:00,
2013-04-18 05:26:00,64.8,63.0,29.98,East,97,0.0,1.0,94,0.00,,,0.00,VWS V14.01,2013-04-18 09:26:00,
2013-04-18 05:31:00,64.8,63.0,29.98,East,97,0.0,1.0,94,0.00,,,0.00,VWS V14.01,2013-04-18 09:31:00,
2013-04-18 05:36:00,64.9,63.4,29.98,East,97,0.0,0.0,95,0.00,,,0.00,VWS V14.01,2013-04-18 09:36:00,
2013-04-18 05:41:00,64.9,63.4,29.98,East,97,0.0,0.0,95,0.00,,,0.00,VWS V14.01,2013-04-18 09:41:00,
2013-04-18 05:46:00,64.8,63.3,29.98,East,97,0.0,0.0,95,0.00,,,0.00,VWS V14.01,2013-04-18 09:46:00,
2013-04-18 05:51:00,64.8,63.3,29.98,East,97,0.0,0.0,95,0.00,,,0.00,VWS V14.01,2013-04-18 09:51:00,
2013-04-18 05:56:00,64.9,63.4,29.98,East,97,0.0,0.0,95,0.00,,,0.00,VWS V14.01,2013-04-18 09:56:00,
2013-04-18 06:01:00,65.0,63.5,29.99,East,97,0.0,0.0,95,0.00,,,0.00,VWS V14.01,2013-04-18 10:01:00,
2013-04-18 06:06:00,65.4,63.9,29.98,East,97,0.0,1.0,95,0.00,,,0.00,VWS V14.01,2013-04-18 10:06:00,
2013-04-18 06:11:00,65.7,64.5,29.98,East,97,0.0,2.0,96,0.00,,,0.00,VWS V14.01,2013-04-18 10:11:00,
2013-04-18 06:16:00,65.8,64.6,29.99,East,97,0.0,1.0,96,0.00,,,0.00,VWS V14.01,2013-04-18 10:16:00,
2013-04-18 06:21:00,65.7,64.2,29.99,East,97,0.0,1.0,95,0.00,,,0.00,VWS V14.01,2013-04-18 10:21:00,
2013-04-18 06:26:00,65.5,64.0,29.99,East,97,0.0,0.0,95,0.00,,,0.00,VWS V14.01,2013-04-18 10:26:00,
2013-04-18 06:31:00,65.2,63.7,29.99,East,97,0.0,0.0,95,0.00,,,0.00,VWS V14.01,2013-04-18 10:31:00,
2013-04-18 06:36:00,65.0,63.5,29.99,East,97,0.0,0.0,95,0.00,,,0.00,VWS V14.01,2013-04-18 10:36:00,
2013-04-18 06:41:00,65.1,63.6,29.98,East,97,0.0,0.0,95,0.00,,,0.00,VWS V14.01,2013-04-18 10:41:00,
2013-04-18 06:46:00,65.3,64.1,29.98,East,97,0.0,1.0,96,0.00,,,0.00,VWS V14.01,2013-04-18 10:46:00,
2013-04-18 06:51:00,65.2,63.7,29.99,East,97,0.0,2.0,95,0.00,,,0.00,VWS V14.01,2013-04-18 10:51:00,
2013-04-18 06:56:00,65.2,64.0,29.99,East,97,0.0,0.0,96,0.00,,,0.00,VWS V14.01,2013-04-18 10:56:00,
2013-04-18 07:01:00,65.1,63.9,29.99,East,97,0.0,0.0,96,0.00,,,0.00,VWS V14.01,2013-04-18 11:01:00,
2013-04-18 07:06:00,65.1,63.9,29.99,East,97,0.0,0.0,96,0.00,,,0.00,VWS V14.01,2013-04-18 11:06:00,
2013-04-18 07:11:00,65.0,63.8,30.00,East,97,0.0,0.0,96,0.00,,,0.00,VWS V14.01,2013-04-18 11:11:00,
2013-04-18 07:16:00,65.0,63.8,30.00,East,97,0.0,0.0,96,0.00,,,0.00,VWS V14.01,2013-04-18 11:16:00,
2013-04-18 07:21:00,65.4,64.2,30.00,East,97,0.0,0.0,96,0.00,,,0.00,VWS V14.01,2013-04-18 11:21:00,
2013-04-18 07:27:00,65.5,64.3,30.00,East,97,0.0,0.0,96,0.00,,,0.00,VWS V14.01,2013-04-18 11:27:00,
2013-04-18 07:32:00,65.6,64.4,30.00,East,97,0.0,1.0,96,0.00,,,0.00,VWS V14.01,2013-04-18 11:32:00,
2013-04-18 07:37:00,65.8,64.6,30.00,East,97,1.0,2.0,96,0.00,,,0.00,VWS V14.01,2013-04-18 11:37:00,
2013-04-18 07:42:00,66.5,65.6,30.00,East,97,2.0,5.0,97,0.00,,,0.00,VWS V14.01,2013-04-18 11:42:00,
2013-04-18 07:47:00,67.3,66.4,30.00,East,97,4.0,5.0,97,0.00,,,0.00,VWS V14.01,2013-04-18 11:47:00,
2013-04-18 07:52:00,67.6,66.7,30.00,East,97,4.0,5.0,97,0.00,,,0.00,VWS V14.01,2013-04-18 11:52:00,
2013-04-18 07:57:00,68.0,66.8,30.01,East,97,1.0,4.0,96,0.00,,,0.00,VWS V14.01,2013-04-18 11:57:00,
2013-04-18 08:02:00,68.7,67.5,30.01,East,97,4.0,5.0,96,0.00,,,0.00,VWS V14.01,2013-04-18 12:02:00,
2013-04-18 08:07:00,69.4,67.9,30.01,East,97,2.0,4.0,95,0.00,,,0.00,VWS V14.01,2013-04-18 12:07:00,
2013-04-18 08:12:00,70.0,68.2,30.01,East,82,4.0,6.0,94,0.00,,,0.00,VWS V14.01,2013-04-18 12:12:00,
2013-04-18 08:17:00,70.9,68.5,30.01,East,86,3.0,4.0,92,0.00,,,0.00,VWS V14.01,2013-04-18 12:17:00,
2013-04-18 08:21:00,71.7,68.6,30.01,East,86,2.0,4.0,90,0.00,,,0.00,VWS V14.01,2013-04-18 12:21:00,
2013-04-18 08:26:00,72.4,68.7,30.01,East,80,3.0,4.0,88,0.00,,,0.00,VWS V14.01,2013-04-18 12:26:00,
2013-04-18 08:31:00,72.9,68.1,30.01,East,89,5.0,8.0,85,0.00,,,0.00,VWS V14.01,2013-04-18 12:31:00,
2013-04-18 08:36:00,73.4,68.6,30.02,SE,126,2.0,6.0,85,0.00,,,0.00,VWS V14.01,2013-04-18 12:36:00,
2013-04-18 08:41:00,73.9,68.4,30.01,East,98,5.0,7.0,83,0.00,,,0.00,VWS V14.01,2013-04-18 12:41:00,
2013-04-18 08:46:00,74.3,68.1,30.01,SE,140,6.0,8.0,81,0.00,,,0.00,VWS V14.01,2013-04-18 12:46:00,
2013-04-18 08:52:00,74.6,68.0,30.01,ESE,116,5.0,8.0,80,0.00,,,0.00,VWS V14.01,2013-04-18 12:52:00,
2013-04-18 08:57:00,74.9,67.6,30.01,ESE,116,6.0,11.0,78,0.00,,,0.00,VWS V14.01,2013-04-18 12:57:00,
2013-04-18 09:02:00,75.2,67.9,30.01,ESE,115,5.0,11.0,78,0.00,,,0.00,VWS V14.01,2013-04-18 13:02:00,
2013-04-18 09:07:00,75.7,67.6,30.01,ESE,116,6.0,9.0,76,0.00,,,0.00,VWS V14.01,2013-04-18 13:07:00,
2013-04-18 09:11:00,76.0,67.5,30.01,SSE,153,9.0,9.0,75,0.00,,,0.00,VWS V14.01,2013-04-18 13:11:00,
2013-04-18 09:16:00,76.0,67.5,30.01,ESE,117,11.0,14.0,75,0.00,,,0.00,VWS V14.01,2013-04-18 13:16:00,
2013-04-18 09:21:00,76.1,67.6,30.01,SSE,147,8.0,14.0,75,0.00,,,0.00,VWS V14.01,2013-04-18 13:21:00,
2013-04-18 09:26:00,76.8,68.3,30.01,SE,135,7.0,12.0,75,0.00,,,0.00,VWS V14.01,2013-04-18 13:26:00,
2013-04-18 09:31:00,76.9,68.0,30.01,SE,132,4.0,13.0,74,0.00,,,0.00,VWS V14.01,2013-04-18 13:31:00,
2013-04-18 09:36:00,77.3,68.0,30.01,SE,137,6.0,7.0,73,0.00,,,0.00,VWS V14.01,2013-04-18 13:36:00,
2013-04-18 09:41:00,77.3,67.6,30.01,SSE,165,8.0,13.0,72,0.00,,,0.00,VWS V14.01,2013-04-18 13:41:00,
2013-04-18 09:47:00,77.3,67.6,30.01,ESE,117,9.0,14.0,72,0.00,,,0.00,VWS V14.01,2013-04-18 13:47:00,
2013-04-18 09:52:00,77.5,67.4,30.02,SSE,150,4.0,14.0,71,0.00,,,0.00,VWS V14.01,2013-04-18 13:52:00,
2013-04-18 09:57:00,77.8,67.7,30.02,ESE,118,6.0,12.0,71,0.00,,,0.00,VWS V14.01,2013-04-18 13:57:00,
2013-04-18 10:02:00,78.2,68.0,30.02,SE,130,5.0,12.0,71,0.00,,,0.00,VWS V14.01,2013-04-18 14:02:00,
2013-04-18 10:07:00,78.8,68.2,30.02,SE,142,11.0,12.0,70,0.00,,,0.00,VWS V14.01,2013-04-18 14:07:00,
2013-04-18 10:12:00,79.3,68.7,30.02,SSE,148,1.0,12.0,70,0.00,,,0.00,VWS V14.01,2013-04-18 14:12:00,
2013-04-18 10:17:00,79.8,68.7,30.02,SE,138,6.0,12.0,69,0.00,,,0.00,VWS V14.01,2013-04-18 14:17:00,
2013-04-18 10:22:00,80.3,68.8,30.01,SSE,161,7.0,12.0,68,0.00,,,0.00,VWS V14.01,2013-04-18 14:22:00,
2013-04-18 10:27:00,80.6,68.6,30.01,SSE,163,8.0,10.0,67,0.00,,,0.00,VWS V14.01,2013-04-18 14:27:00,
2013-04-18 10:32:00,80.3,68.3,30.01,SE,132,7.0,16.0,67,0.00,,,0.00,VWS V14.01,2013-04-18 14:32:00,
2013-04-18 10:37:00,80.1,68.2,30.01,South,185,6.0,12.0,67,0.00,,,0.00,VWS V14.01,2013-04-18 14:37:00,
2013-04-18 10:42:00,80.3,67.9,30.01,SE,143,7.0,13.0,66,0.00,,,0.00,VWS V14.01,2013-04-18 14:42:00,
2013-04-18 10:47:00,80.7,68.7,30.01,SSE,160,8.0,15.0,67,0.00,,,0.00,VWS V14.01,2013-04-18 14:47:00,
2013-04-18 10:52:00,81.1,69.6,30.01,ESE,113,11.0,15.0,68,0.00,,,0.00,VWS V14.01,2013-04-18 14:52:00,
2013-04-18 10:57:00,81.0,68.1,30.01,SSE,157,7.0,13.0,65,0.00,,,0.00,VWS V14.01,2013-04-18 14:57:00,
2013-04-18 11:02:00,81.0,68.1,30.01,SSE,147,9.0,15.0,65,0.00,,,0.00,VWS V14.01,2013-04-18 15:02:00,
2013-04-18 11:07:00,80.6,67.8,30.01,South,172,2.0,9.0,65,0.00,,,0.00,VWS V14.01,2013-04-18 15:07:00,
2013-04-18 11:12:00,81.2,68.3,30.01,South,191,4.0,9.0,65,0.00,,,0.00,VWS V14.01,2013-04-18 15:12:00,
2013-04-18 11:17:00,81.3,67.1,30.01,SSE,148,6.0,14.0,62,0.00,,,0.00,VWS V14.01,2013-04-18 15:17:00,
2013-04-18 11:22:00,81.5,67.7,30.01,SSE,156,5.0,14.0,63,0.00,,,0.00,VWS V14.01,2013-04-18 15:22:00,
2013-04-18 11:27:00,82.9,69.0,30.01,South,169,6.0,9.0,63,0.00,,,0.00,VWS V14.01,2013-04-18 15:27:00,
2013-04-18 11:32:00,82.3,67.0,30.01,SSW,208,4.0,12.0,60,0.00,,,0.00,VWS V14.01,2013-04-18 15:32:00,
2013-04-18 11:37:00,82.5,67.2,30.01,East,99,11.0,14.0,60,0.00,,,0.00,VWS V14.01,2013-04-18 15:37:00,
2013-04-18 11:42:00,83.1,67.3,30.01,ESE,116,6.0,14.0,59,0.00,,,0.00,VWS V14.01,2013-04-18 15:42:00,
2013-04-18 11:47:00,82.7,65.9,30.01,SSE,150,8.0,9.0,57,0.00,,,0.00,VWS V14.01,2013-04-18 15:47:00,
2013-04-18 11:52:00,82.6,66.8,30.00,ESE,121,9.0,12.0,59,0.00,,,0.00,VWS V14.01,2013-04-18 15:52:00,
2013-04-18 11:57:00,83.7,66.9,30.00,SSE,162,4.0,12.0,57,0.00,,,0.00,VWS V14.01,2013-04-18 15:57:00,
2013-04-18 12:02:00,82.7,66.4,30.00,SSE,151,9.0,13.0,58,0.00,,,0.00,VWS V14.01,2013-04-18 16:02:00,
2013-04-18 12:07:00,83.3,66.0,30.00,SE,142,2.0,12.0,56,0.00,,,0.00,VWS V14.01,2013-04-18 16:07:00,
2013-04-18 12:12:00,84.8,66.8,30.00,South,185,5.0,12.0,55,0.00,,,0.00,VWS V14.01,2013-04-18 16:12:00,
2013-04-18 12:17:00,83.7,64.8,30.00,ESE,117,5.0,11.0,53,0.00,,,0.00,VWS V14.01,2013-04-18 16:17:00,
2013-04-18 12:22:00,83.7,65.3,30.00,SE,134,2.0,11.0,54,0.00,,,0.00,VWS V14.01,2013-04-18 16:22:00,
2013-04-18 12:27:00,84.5,67.1,30.00,ENE,69,6.0,13.0,56,0.00,,,0.00,VWS V14.01,2013-04-18 16:27:00,
2013-04-18 12:32:00,83.9,66.0,30.00,SE,138,5.0,17.0,55,0.00,,,0.00,VWS V14.01,2013-04-18 16:32:00,
2013-04-18 12:37:00,84.0,67.1,30.00,ESE,112,8.0,12.0,57,0.00,,,0.00,VWS V14.01,2013-04-18 16:37:00,
2013-04-18 12:42:00,85.0,66.0,29.99,SE,132,4.0,19.0,53,0.00,,,0.00,VWS V14.01,2013-04-18 16:42:00,
2013-04-18 12:47:00,84.1,66.2,29.99,SSE,150,4.0,7.0,55,0.00,,,0.00,VWS V14.01,2013-04-18 16:47:00,
2013-04-18 12:52:00,83.0,65.7,29.99,SSW,195,2.0,8.0,56,0.00,,,0.00,VWS V14.01,2013-04-18 16:52:00,
2013-04-18 12:57:00,83.2,65.9,29.99,SE,129,5.0,9.0,56,0.00,,,0.00,VWS V14.01,2013-04-18 16:57:00,
2013-04-18 13:02:00,83.8,65.9,29.99,ESE,117,1.0,9.0,55,0.00,,,0.00,VWS V14.01,2013-04-18 17:02:00,
2013-04-18 13:07:00,84.0,66.1,29.99,SE,136,2.0,8.0,55,0.00,,,0.00,VWS V14.01,2013-04-18 17:07:00,
2013-04-18 13:12:00,84.1,66.7,29.99,SE,131,2.0,9.0,56,0.00,,,0.00,VWS V14.01,2013-04-18 17:12:00,
2013-04-18 13:17:00,84.7,67.8,29.98,SSE,149,8.0,9.0,57,0.00,,,0.00,VWS V14.01,2013-04-18 17:17:00,
2013-04-18 13:22:00,84.4,66.5,29.98,SSW,193,3.0,9.0,55,0.00,,,0.00,VWS V14.01,2013-04-18 17:22:00,
2013-04-18 13:27:00,84.1,67.2,29.98,ESE,118,4.0,7.0,57,0.00,,,0.00,VWS V14.01,2013-04-18 17:27:00,
2013-04-18 13:32:00,84.4,67.0,29.98,SSE,165,5.0,9.0,56,0.00,,,0.00,VWS V14.01,2013-04-18 17:32:00,
2013-04-18 13:37:00,84.4,65.9,29.98,SE,142,7.0,9.0,54,0.00,,,0.00,VWS V14.01,2013-04-18 17:37:00,
2013-04-18 13:42:00,84.5,66.6,29.98,ESE,121,4.0,12.0,55,0.00,,,0.00,VWS V14.01,2013-04-18 17:42:00,
2013-04-18 13:47:00,85.2,66.7,29.98,East,80,5.0,11.0,54,0.00,,,0.00,VWS V14.01,2013-04-18 17:47:00,
2013-04-18 13:52:00,84.9,65.9,29.98,ESE,115,7.0,12.0,53,0.00,,,0.00,VWS V14.01,2013-04-18 17:52:00,
2013-04-18 13:57:00,85.0,67.0,29.98,ENE,78,2.0,7.0,55,0.00,,,0.00,VWS V14.01,2013-04-18 17:57:00,
2013-04-18 14:02:00,84.7,66.2,29.98,SE,140,4.0,12.0,54,0.00,,,0.00,VWS V14.01,2013-04-18 18:02:00,
2013-04-18 14:07:00,84.2,65.8,29.98,SE,126,4.0,6.0,54,0.00,,,0.00,VWS V14.01,2013-04-18 18:07:00,
2013-04-18 14:12:00,84.1,65.7,29.98,ESE,112,6.0,11.0,54,0.00,,,0.00,VWS V14.01,2013-04-18 18:12:00,
2013-04-18 14:17:00,84.3,66.4,29.98,SE,138,2.0,4.0,55,0.00,,,0.00,VWS V14.01,2013-04-18 18:17:00,
2013-04-18 14:22:00,84.9,68.0,29.98,SE,126,5.0,6.0,57,0.00,,,0.00,VWS V14.01,2013-04-18 18:22:00,
2013-04-18 14:27:00,85.3,66.2,29.97,ESE,120,7.0,9.0,53,0.00,,,0.00,VWS V14.01,2013-04-18 18:27:00,
2013-04-18 14:32:00,85.1,66.1,29.97,ESE,107,4.0,11.0,53,0.00,,,0.00,VWS V14.01,2013-04-18 18:32:00,
2013-04-18 14:37:00,84.9,65.9,29.97,SE,137,5.0,12.0,53,0.00,,,0.00,VWS V14.01,2013-04-18 18:37:00,
2013-04-18 14:42:00,85.3,66.2,29.97,SSE,150,6.0,12.0,53,0.00,,,0.00,VWS V14.01,2013-04-18 18:42:00,
2013-04-18 14:47:00,85.3,65.7,29.97,SSE,151,4.0,6.0,52,0.00,,,0.00,VWS V14.01,2013-04-18 18:47:00,
2013-04-18 14:52:00,85.0,66.0,29.96,SE,126,2.0,9.0,53,0.00,,,0.00,VWS V14.01,2013-04-18 18:52:00,
2013-04-18 14:57:00,85.7,65.5,29.96,East,91,6.0,11.0,51,0.00,,,0.00,VWS V14.01,2013-04-18 18:57:00,
2013-04-18 15:02:00,87.8,66.9,29.96,ENE,71,2.0,11.0,50,0.00,,,0.00,VWS V14.01,2013-04-18 19:02:00,
2013-04-18 15:07:00,86.7,65.9,29.95,SW,223,1.0,8.0,50,0.00,,,0.00,VWS V14.01,2013-04-18 19:07:00,
2013-04-18 15:12:00,86.8,66.5,29.95,SW,223,3.0,8.0,51,0.00,,,0.00,VWS V14.01,2013-04-18 19:12:00,
2013-04-18 15:17:00,87.3,66.4,29.95,SW,217,2.0,3.0,50,0.00,,,0.00,VWS V14.01,2013-04-18 19:17:00,
2013-04-18 15:22:00,86.6,67.4,29.94,West,264,1.0,6.0,53,0.00,,,0.00,VWS V14.01,2013-04-18 19:22:00,
2013-04-18 15:27:00,87.5,64.8,29.94,West,264,0.0,0.0,47,0.00,,,0.00,VWS V14.01,2013-04-18 19:27:00,
2013-04-18 15:32:00,87.2,66.3,29.94,West,264,3.0,3.0,50,0.00,,,0.00,VWS V14.01,2013-04-18 19:32:00,
2013-04-18 15:37:00,87.0,65.0,29.93,West,264,0.0,4.0,48,0.00,,,0.00,VWS V14.01,2013-04-18 19:37:00,
2013-04-18 15:42:00,87.2,69.1,29.93,SE,143,4.0,7.0,55,0.00,,,0.00,VWS V14.01,2013-04-18 19:42:00,
2013-04-18 15:47:00,87.9,65.2,29.93,SSE,160,4.0,5.0,47,0.00,,,0.00,VWS V14.01,2013-04-18 19:47:00,
2013-04-18 15:52:00,87.2,65.1,29.93,SSW,201,3.0,6.0,48,0.00,,,0.00,VWS V14.01,2013-04-18 19:52:00,
2013-04-18 15:57:00,87.2,65.7,29.93,SE,127,2.0,7.0,49,0.00,,,0.00,VWS V14.01,2013-04-18 19:57:00,
2013-04-18 16:02:00,87.5,66.0,29.92,SE,146,6.0,7.0,49,0.00,,,0.00,VWS V14.01,2013-04-18 20:02:00,
2013-04-18 16:07:00,87.5,65.4,29.93,ESE,115,7.0,8.0,48,0.00,,,0.00,VWS V14.01,2013-04-18 20:07:00,
2013-04-18 16:12:00,87.5,65.4,29.93,ESE,108,6.0,8.0,48,0.00,,,0.00,VWS V14.01,2013-04-18 20:12:00,
2013-04-18 16:17:00,88.1,65.3,29.93,East,97,5.0,7.0,47,0.00,,,0.00,VWS V14.01,2013-04-18 20:17:00,
2013-04-18 16:22:00,88.3,66.7,29.93,East,101,1.0,7.0,49,0.00,,,0.00,VWS V14.01,2013-04-18 20:22:00,
2013-04-18 16:27:00,88.2,66.7,29.93,ESE,123,1.0,7.0,49,0.00,,,0.00,VWS V14.01,2013-04-18 20:27:00,
2013-04-18 16:32:00,87.4,65.3,29.92,SSE,161,2.0,7.0,48,0.00,,,0.00,VWS V14.01,2013-04-18 20:32:00,
2013-04-18 16:37:00,87.0,65.0,29.92,ENE,76,2.0,7.0,48,0.00,,,0.00,VWS V14.01,2013-04-18 20:37:00,
2013-04-18 16:42:00,86.9,65.5,29.92,ENE,78,0.0,7.0,49,0.00,,,0.00,VWS V14.01,2013-04-18 20:42:00,
2013-04-18 16:47:00,87.2,65.1,29.92,ESE,102,5.0,9.0,48,0.00,,,0.00,VWS V14.01,2013-04-18 20:47:00,
2013-04-18 16:52:00,87.9,66.4,29.92,ESE,102,4.0,9.0,49,0.00,,,0.00,VWS V14.01,2013-04-18 20:52:00,
2013-04-18 16:57:00,88.1,64.7,29.92,East,95,5.0,8.0,46,0.00,,,0.00,VWS V14.01,2013-04-18 20:57:00,
2013-04-18 17:02:00,87.7,65.0,29.92,ENE,67,3.0,8.0,47,0.00,,,0.00,VWS V14.01,2013-04-18 21:02:00,
2013-04-18 17:07:00,87.5,66.6,29.92,ENE,67,1.0,4.0,50,0.00,,,0.00,VWS V14.01,2013-04-18 21:07:00,
2013-04-18 17:12:00,87.7,65.6,29.91,ENE,67,0.0,6.0,48,0.00,,,0.00,VWS V14.01,2013-04-18 21:12:00,
2013-04-18 17:17:00,88.0,65.3,29.91,SE,138,6.0,9.0,47,0.00,,,0.00,VWS V14.01,2013-04-18 21:17:00,
2013-04-18 17:22:00,87.6,65.5,29.91,ESE,102,5.0,9.0,48,0.00,,,0.00,VWS V14.01,2013-04-18 21:22:00,
2013-04-18 17:27:00,87.3,65.8,29.91,ESE,122,0.0,9.0,49,0.00,,,0.00,VWS V14.01,2013-04-18 21:27:00,
2013-04-18 17:32:00,87.5,66.0,29.91,ESE,122,0.0,9.0,49,0.00,,,0.00,VWS V14.01,2013-04-18 21:32:00,
2013-04-18 17:37:00,88.7,65.9,29.91,ESE,122,1.0,6.0,47,0.00,,,0.00,VWS V14.01,2013-04-18 21:37:00,
2013-04-18 17:42:00,89.2,66.3,29.91,NE,38,8.0,9.0,47,0.00,,,0.00,VWS V14.01,2013-04-18 21:42:00,
2013-04-18 17:47:00,89.0,65.6,29.91,East,93,8.0,8.0,46,0.00,,,0.00,VWS V14.01,2013-04-18 21:47:00,
2013-04-18 17:52:00,87.9,65.2,29.91,SE,131,4.0,11.0,47,0.00,,,0.00,VWS V14.01,2013-04-18 21:52:00,
2013-04-18 17:57:00,87.1,65.6,29.92,ESE,109,5.0,8.0,49,0.00,,,0.00,VWS V14.01,2013-04-18 21:57:00,
2013-04-18 18:02:00,86.6,65.8,29.91,East,90,6.0,8.0,50,0.00,,,0.00,VWS V14.01,2013-04-18 22:02:00,
2013-04-18 18:07:00,86.4,66.2,29.91,ESE,108,8.0,8.0,51,0.00,,,0.00,VWS V14.01,2013-04-18 22:07:00,
2013-04-18 18:12:00,86.1,65.9,29.91,ESE,117,4.0,9.0,51,0.00,,,0.00,VWS V14.01,2013-04-18 22:12:00,
2013-04-18 18:17:00,86.0,66.3,29.91,ESE,117,0.0,6.0,52,0.00,,,0.00,VWS V14.01,2013-04-18 22:17:00,
2013-04-18 18:22:00,85.9,65.7,29.91,SE,124,6.0,7.0,51,0.00,,,0.00,VWS V14.01,2013-04-18 22:22:00,
2013-04-18 18:27:00,85.9,66.2,29.91,ESE,121,1.0,7.0,52,0.00,,,0.00,VWS V14.01,2013-04-18 22:27:00,
2013-04-18 18:32:00,85.7,66.6,29.91,ESE,123,1.0,7.0,53,0.00,,,0.00,VWS V14.01,2013-04-18 22:32:00,
2013-04-18 18:37:00,85.6,66.5,29.91,SE,130,4.0,7.0,53,0.00,,,0.00,VWS V14.01,2013-04-18 22:37:00,
2013-04-18 18:42:00,85.4,65.8,29.92,SE,130,4.0,7.0,52,0.00,,,0.00,VWS V14.01,2013-04-18 22:42:00,
2013-04-18 18:47:00,85.4,66.3,29.91,ESE,122,6.0,8.0,53,0.00,,,0.00,VWS V14.01,2013-04-18 22:47:00,
2013-04-18 18:52:00,85.3,66.2,29.91,ESE,115,0.0,8.0,53,0.00,,,0.00,VWS V14.01,2013-04-18 22:52:00,
2013-04-18 18:57:00,85.2,66.2,29.91,ESE,115,2.0,6.0,53,0.00,,,0.00,VWS V14.01,2013-04-18 22:57:00,
2013-04-18 19:02:00,85.0,66.5,29.91,SE,130,5.0,8.0,54,0.00,,,0.00,VWS V14.01,2013-04-18 23:02:00,
2013-04-18 19:07:00,84.9,66.9,29.91,SE,130,4.0,5.0,55,0.00,,,0.00,VWS V14.01,2013-04-18 23:07:00,
2013-04-18 19:12:00,84.8,66.8,29.91,SE,130,5.0,7.0,55,0.00,,,0.00,VWS V14.01,2013-04-18 23:12:00,
2013-04-18 19:17:00,84.8,66.8,29.91,SE,130,2.0,6.0,55,0.00,,,0.00,VWS V14.01,2013-04-18 23:17:00,
2013-04-18 19:22:00,84.7,67.3,29.91,SE,130,0.0,6.0,56,0.00,,,0.00,VWS V14.01,2013-04-18 23:22:00,
2013-04-18 19:27:00,84.7,67.3,29.91,SE,130,6.0,6.0,56,0.00,,,0.00,VWS V14.01,2013-04-18 23:27:00,
2013-04-18 19:32:00,84.6,67.2,29.91,ESE,116,7.0,8.0,56,0.00,,,0.00,VWS V14.01,2013-04-18 23:32:00,
2013-04-18 19:37:00,84.3,66.9,29.91,ESE,112,4.0,12.0,56,0.00,,,0.00,VWS V14.01,2013-04-18 23:37:00,
2013-04-18 19:42:00,84.1,66.7,29.91,ESE,118,9.0,12.0,56,0.00,,,0.00,VWS V14.01,2013-04-18 23:42:00,
2013-04-18 19:47:00,83.9,67.1,29.91,East,95,7.0,11.0,57,0.00,,,0.00,VWS V14.01,2013-04-18 23:47:00,
2013-04-18 19:52:00,83.5,68.2,29.92,East,94,11.0,16.0,60,0.00,,,0.00,VWS V14.01,2013-04-18 23:52:00,
2013-04-18 19:57:00,83.0,68.2,29.92,East,93,5.0,12.0,61,0.00,,,0.00,VWS V14.01,2013-04-18 23:57:00,
2013-04-18 20:02:00,82.8,68.5,29.92,ESE,109,7.0,12.0,62,0.00,,,0.00,VWS V14.01,2013-04-19 00:02:00,
2013-04-18 20:07:00,82.6,68.7,29.92,SE,137,8.0,14.0,63,0.00,,,0.00,VWS V14.01,2013-04-19 00:07:00,
2013-04-18 20:12:00,82.4,69.5,29.92,ESE,118,7.0,19.0,65,0.00,,,0.00,VWS V14.01,2013-04-19 00:12:00,
2013-04-18 20:17:00,82.1,70.1,29.92,East,101,14.0,18.0,67,0.00,,,0.00,VWS V14.01,2013-04-19 00:17:00,
2013-04-18 20:22:00,81.8,70.2,29.92,ENE,62,7.0,18.0,68,0.00,,,0.00,VWS V14.01,2013-04-19 00:22:00,
2013-04-18 20:27:00,81.5,69.9,29.92,East,95,15.0,19.0,68,0.00,,,0.00,VWS V14.01,2013-04-19 00:27:00,
2013-04-18 20:32:00,81.1,69.6,29.92,ENE,69,7.0,19.0,68,0.00,,,0.00,VWS V14.01,2013-04-19 00:32:00,
2013-04-18 20:37:00,80.8,69.3,29.93,East,86,10.0,14.0,68,0.00,,,0.00,VWS V14.01,2013-04-19 00:37:00,
2013-04-18 20:42:00,80.5,69.0,29.93,East,98,12.0,16.0,68,0.00,,,0.00,VWS V14.01,2013-04-19 00:42:00,
2013-04-18 20:47:00,80.3,68.8,29.93,ENE,63,6.0,15.0,68,0.00,,,0.00,VWS V14.01,2013-04-19 00:47:00,
2013-04-18 20:52:00,80.2,69.1,29.94,ESE,115,5.0,15.0,69,0.00,,,0.00,VWS V14.01,2013-04-19 00:52:00,
2013-04-18 20:57:00,80.0,69.3,29.94,East,90,5.0,13.0,70,0.00,,,0.00,VWS V14.01,2013-04-19 00:57:00,
2013-04-18 21:02:00,79.8,69.2,29.94,SE,133,5.0,13.0,70,0.00,,,0.00,VWS V14.01,2013-04-19 01:02:00,
2013-04-18 21:07:00,79.7,69.5,29.94,East,91,9.0,11.0,71,0.00,,,0.00,VWS V14.01,2013-04-19 01:07:00,
2013-04-18 21:12:00,79.5,69.3,29.94,East,101,8.0,11.0,71,0.00,,,0.00,VWS V14.01,2013-04-19 01:12:00,
2013-04-18 21:17:00,79.4,69.2,29.94,ESE,103,4.0,9.0,71,0.00,,,0.00,VWS V14.01,2013-04-19 01:17:00,
2013-04-18 21:22:00,79.3,69.1,29.95,East,98,13.0,13.0,71,0.00,,,0.00,VWS V14.01,2013-04-19 01:22:00,
2013-04-18 21:27:00,79.2,69.4,29.94,East,96,8.0,10.0,72,0.00,,,0.00,VWS V14.01,2013-04-19 01:27:00,
2013-04-18 21:32:00,79.0,69.2,29.95,ESE,108,9.0,14.0,72,0.00,,,0.00,VWS V14.01,2013-04-19 01:32:00,
2013-04-18 21:37:00,78.9,69.1,29.95,SE,126,9.0,14.0,72,0.00,,,0.00,VWS V14.01,2013-04-19 01:37:00,
2013-04-18 21:42:00,78.8,69.0,29.95,SE,138,4.0,14.0,72,0.00,,,0.00,VWS V14.01,2013-04-19 01:42:00,
2013-04-18 21:47:00,78.7,68.9,29.95,ESE,104,12.0,14.0,72,0.00,,,0.00,VWS V14.01,2013-04-19 01:47:00,
2013-04-18 21:52:00,78.6,68.8,29.96,ESE,118,6.0,16.0,72,0.00,,,0.00,VWS V14.01,2013-04-19 01:52:00,
2013-04-18 21:57:00,78.4,68.6,29.95,ESE,119,11.0,11.0,72,0.00,,,0.00,VWS V14.01,2013-04-19 01:57:00,
2013-04-18 22:02:00,78.2,68.8,29.95,East,97,7.0,15.0,73,0.00,,,0.00,VWS V14.01,2013-04-19 02:02:00,
2013-04-18 22:07:00,78.1,68.8,29.96,ESE,120,4.0,14.0,73,0.00,,,0.00,VWS V14.01,2013-04-19 02:07:00,
2013-04-18 22:12:00,78.0,69.1,29.96,ESE,112,8.0,14.0,74,0.00,,,0.00,VWS V14.01,2013-04-19 02:12:00,
2013-04-18 22:17:00,77.8,68.9,29.96,SE,130,6.0,12.0,74,0.00,,,0.00,VWS V14.01,2013-04-19 02:17:00,
2013-04-18 22:22:00,77.7,69.2,29.96,SE,146,6.0,12.0,75,0.00,,,0.00,VWS V14.01,2013-04-19 02:22:00,
2013-04-18 22:27:00,77.4,68.9,29.97,South,182,4.0,11.0,75,0.00,,,0.00,VWS V14.01,2013-04-19 02:27:00,
2013-04-18 22:32:00,77.2,68.7,29.98,SE,146,5.0,11.0,75,0.00,,,0.00,VWS V14.01,2013-04-19 02:32:00,
2013-04-18 22:37:00,77.1,69.3,29.97,SW,227,4.0,8.0,77,0.00,,,0.00,VWS V14.01,2013-04-19 02:37:00,
2013-04-18 22:42:00,76.6,70.3,29.97,SW,230,4.0,10.0,81,0.00,,,0.00,VWS V14.01,2013-04-19 02:42:00,
2013-04-18 22:47:00,76.2,70.3,29.98,SW,217,4.0,5.0,82,0.00,,,0.00,VWS V14.01,2013-04-19 02:47:00,
2013-04-18 22:52:00,75.8,70.6,29.98,SW,218,2.0,6.0,84,0.00,,,0.00,VWS V14.01,2013-04-19 02:52:00,
2013-04-18 22:57:00,75.1,70.6,29.99,SW,227,5.0,12.0,86,0.03,,,0.03,VWS V14.01,2013-04-19 02:57:00,
2013-04-18 23:02:00,73.7,70.6,29.99,SW,232,11.0,12.0,90,0.16,,,0.16,VWS V14.01,2013-04-19 03:02:00,
2013-04-18 23:07:00,72.9,70.4,29.99,SW,215,3.0,8.0,92,0.20,,,0.20,VWS V14.01,2013-04-19 03:07:00,
2013-04-18 23:12:00,72.6,70.5,29.99,SW,215,5.0,9.0,93,0.25,,,0.25,VWS V14.01,2013-04-19 03:12:00,
2013-04-18 23:17:00,72.4,70.3,29.99,SW,218,0.0,5.0,93,0.26,,,0.26,VWS V14.01,2013-04-19 03:17:00,
2013-04-18 23:22:00,72.4,70.6,29.99,SW,218,0.0,5.0,94,0.27,,,0.27,VWS V14.01,2013-04-19 03:22:00,
2013-04-18 23:27:00,72.4,70.6,29.99,SW,218,2.0,3.0,94,0.27,,,0.27,VWS V14.01,2013-04-19 03:27:00,
2013-04-18 23:32:00,72.3,70.5,29.98,SW,218,2.0,4.0,94,0.27,,,0.27,VWS V14.01,2013-04-19 03:32:00,
2013-04-18 23:37:00,72.4,70.6,29.99,SW,218,0.0,3.0,94,0.27,,,0.27,VWS V14.01,2013-04-19 03:37:00,
2013-04-18 23:42:00,72.4,70.6,29.99,SW,218,2.0,4.0,94,0.27,,,0.27,VWS V14.01,2013-04-19 03:42:00,
2013-04-18 23:47:00,72.5,71.0,29.99,SW,218,2.0,3.0,95,0.27,,,0.27,VWS V14.01,2013-04-19 03:47:00,
2013-04-18 23:52:00,72.5,71.0,29.99,SW,222,4.0,9.0,95,0.27,,,0.27,VWS V14.01,2013-04-19 03:52:00,
2013-04-18 23:57:00,72.4,70.9,29.99,SSW,211,9.0,12.0,95,0.28,,,0.28,VWS V14.01,2013-04-19 03:57:00,